Lacey, Washington
Current Conditions -  °F | °C
As of 8:54 AM on Friday 31 Oct 2014 (Local Time) from KOLM Reporting Station
Light Rain Light Rain  
Wind Chill: 50°   Ceiling: 5500
Heat Index: 50°   Visibility: 9mi
Dew Point: 48°   Wind: 5mph
Humidity: 93%   Direction: 150°SSE
Pressure: 29.76"   Gusts: NA
Location:  47.04°N, 122.82°W
Report Text: KOLM 311554Z 15004KT 9SM -RA FEW040 OVC055 10/09 A2976 RMK AO2 SLP076 P0008 T01000089
Loading
Personal Weather Stations






























Interactive Weather Map
Tropical Storm Tracking
New forecast layout! Learn more

10-Day Weather Forecast

Advertisements
Track Severe Weather on mobile